createdAt,value
2023-01-07T00:01:19.949Z,99543.00
2023-01-07T00:03:48.322Z,99546.47
2023-01-07T00:06:20.797Z,99544.69
2023-01-07T00:08:48.990Z,99537.53
2023-01-07T00:11:21.404Z,99530.59
2023-01-07T00:13:52.491Z,99547.13
2023-01-07T00:16:21.342Z,99546.56
2023-01-07T00:18:48.155Z,99538.16
2023-01-07T00:21:16.981Z,99538.44
2023-01-07T00:23:45.951Z,99532.28
2023-01-07T00:26:23.222Z,99534.94
2023-01-07T00:28:51.761Z,99534.94
2023-01-07T00:31:27.681Z,99531.16
2023-01-07T00:33:54.803Z,99536.69
2023-01-07T00:36:23.674Z,99534.06
2023-01-07T00:38:58.178Z,99522.03
2023-01-07T00:41:25.311Z,99516.69
2023-01-07T00:43:52.414Z,99518.03
2023-01-07T00:46:19.801Z,99519.13
2023-01-07T00:48:46.800Z,99513.22
2023-01-07T00:51:16.216Z,99511.63
2023-01-07T00:53:43.433Z,99510.34
2023-01-07T00:56:11.554Z,99516.00
2023-01-07T00:58:38.612Z,99514.22
2023-01-07T01:01:06.346Z,99522.56
2023-01-07T01:03:33.743Z,99519.69
2023-01-07T01:06:09.076Z,99514.75
2023-01-07T01:08:36.025Z,99516.34
2023-01-07T01:11:05.010Z,99510.91
2023-01-07T01:13:32.438Z,99512.59
2023-01-07T01:15:59.388Z,99532.22
2023-01-07T01:18:26.180Z,99523.78
2023-01-07T01:20:54.897Z,99527.41
2023-01-07T01:23:22.425Z,99523.44
2023-01-07T01:25:49.172Z,99515.88
2023-01-07T01:28:15.820Z,99522.78
2023-01-07T01:30:42.492Z,99517.56
2023-01-07T01:33:09.590Z,99519.81
2023-01-07T01:35:41.587Z,99516.72
2023-01-07T01:38:08.921Z,99515.59
2023-01-07T01:40:35.643Z,99523.03
2023-01-07T01:43:04.346Z,99514.16
2023-01-07T01:45:31.133Z,99528.69
2023-01-07T01:48:06.632Z,99528.69
2023-01-07T01:50:39.618Z,99521.28
2023-01-07T01:53:14.205Z,99519.22
2023-01-07T01:55:50.364Z,99523.41
2023-01-07T01:58:21.985Z,99515.34
2023-01-07T02:00:49.007Z,99516.91
2023-01-07T02:03:19.619Z,99504.47
2023-01-07T02:05:47.786Z,99512.09
2023-01-07T02:08:21.884Z,99511.38
2023-01-07T02:11:28.313Z,99508.69
2023-01-07T02:14:22.667Z,99499.97
2023-01-07T02:17:23.433Z,99497.50
2023-01-07T02:20:13.457Z,99503.28
2023-01-07T02:22:49.036Z,99498.13
2023-01-07T02:25:54.487Z,99496.44
2023-01-07T02:29:05.054Z,99496.28
2023-01-07T02:32:02.749Z,99494.47
2023-01-07T02:34:50.624Z,99488.03
2023-01-07T02:37:41.126Z,99487.75
2023-01-07T02:40:19.256Z,99485.94
2023-01-07T02:43:04.269Z,99473.50
2023-01-07T02:45:35.931Z,99475.50
2023-01-07T02:48:07.222Z,99476.34
2023-01-07T02:50:34.451Z,99478.44
2023-01-07T02:53:02.862Z,99485.50
2023-01-07T02:55:48.283Z,99478.00
2023-01-07T02:58:41.114Z,99478.50
2023-01-07T03:01:13.684Z,99476.53
2023-01-07T03:04:21.074Z,99482.38
2023-01-07T03:07:17.062Z,99478.38
2023-01-07T03:10:00.617Z,99476.06
2023-01-07T03:12:49.027Z,99478.03
2023-01-07T03:15:22.473Z,99481.06
2023-01-07T03:18:10.825Z,99486.72
2023-01-07T03:20:40.657Z,99484.50
2023-01-07T03:23:10.869Z,99489.03
2023-01-07T03:25:50.346Z,99484.94
2023-01-07T03:28:27.267Z,99484.88
2023-01-07T03:30:57.187Z,99484.22
2023-01-07T03:33:30.577Z,99489.03
2023-01-07T03:36:00.048Z,99486.88
2023-01-07T03:38:29.290Z,99485.63
2023-01-07T03:40:58.362Z,99486.88
2023-01-07T03:43:25.137Z,99477.59
2023-01-07T03:45:54.153Z,99472.22
2023-01-07T03:48:20.792Z,99479.16
2023-01-07T03:50:49.835Z,99476.06
2023-01-07T03:53:16.776Z,99470.44
2023-01-07T03:55:47.083Z,99471.28
2023-01-07T03:58:13.655Z,99460.13
2023-01-07T04:00:40.313Z,99466.34
2023-01-07T04:03:15.422Z,99465.66
2023-01-07T04:05:45.476Z,99459.97
2023-01-07T04:08:12.933Z,99461.38
2023-01-07T04:10:40.700Z,99459.41
2023-01-07T04:13:07.736Z,99457.16
2023-01-07T04:15:35.469Z,99450.50
2023-01-07T04:18:02.697Z,99453.19
2023-01-07T04:20:30.086Z,99454.59
2023-01-07T04:22:56.774Z,99445.25
2023-01-07T04:25:23.469Z,99447.25
2023-01-07T04:27:50.512Z,99440.00
2023-01-07T04:30:17.445Z,99435.69
2023-01-07T04:32:44.363Z,99435.69
2023-01-07T04:35:12.437Z,99435.47
2023-01-07T04:37:39.533Z,99441.28
2023-01-07T04:40:06.888Z,99446.19
2023-01-07T04:42:35.697Z,99443.91
2023-01-07T04:45:03.432Z,99444.91
2023-01-07T04:47:30.086Z,99443.03
2023-01-07T04:49:57.702Z,99441.16
2023-01-07T04:52:24.708Z,99444.22
2023-01-07T04:54:52.817Z,99437.56
2023-01-07T04:57:19.520Z,99434.03
2023-01-07T04:59:46.202Z,99441.03
2023-01-07T05:02:12.960Z,99431.94
2023-01-07T05:04:39.683Z,99426.50
2023-01-07T05:07:06.911Z,99428.03
2023-01-07T05:09:34.365Z,99432.09
2023-01-07T05:12:01.190Z,99433.47
2023-01-07T05:14:29.156Z,99436.34
2023-01-07T05:16:56.826Z,99431.09
2023-01-07T05:19:25.917Z,99429.81
2023-01-07T05:21:52.649Z,99428.66
2023-01-07T05:24:19.199Z,99425.50
2023-01-07T05:26:47.766Z,99424.59
2023-01-07T05:29:17.066Z,99422.59
2023-01-07T05:31:44.552Z,99422.91
2023-01-07T05:34:12.630Z,99420.41
2023-01-07T05:36:40.068Z,99423.22
2023-01-07T05:39:06.720Z,99423.97
2023-01-07T05:41:33.751Z,99416.41
2023-01-07T05:44:00.446Z,99422.63
2023-01-07T05:46:27.145Z,99421.56
2023-01-07T05:48:54.363Z,99424.97
2023-01-07T05:51:21.297Z,99422.66
2023-01-07T05:53:47.883Z,99421.53
2023-01-07T05:56:14.497Z,99426.34
2023-01-07T05:58:41.142Z,99426.59
2023-01-07T06:01:07.988Z,99426.59
2023-01-07T06:03:34.776Z,99426.25
2023-01-07T06:06:07.180Z,99425.31
2023-01-07T06:08:35.711Z,99426.41
2023-01-07T06:11:02.868Z,99426.75
2023-01-07T06:13:29.511Z,99429.44
2023-01-07T06:16:07.848Z,99429.53
2023-01-07T06:18:35.411Z,99428.13
2023-01-07T06:21:03.200Z,99429.81
2023-01-07T06:23:31.291Z,99428.22
2023-01-07T06:25:58.181Z,99430.94
2023-01-07T06:28:24.774Z,99427.84
2023-01-07T06:30:51.415Z,99425.72
2023-01-07T06:33:18.145Z,99425.38
2023-01-07T06:35:45.432Z,99414.09
2023-01-07T06:38:12.565Z,99414.25
2023-01-07T06:40:39.225Z,99415.03
2023-01-07T06:43:05.807Z,99426.56
2023-01-07T06:45:32.516Z,99427.28
2023-01-07T06:47:59.334Z,99421.41
2023-01-07T06:50:26.088Z,99422.00
2023-01-07T06:52:52.929Z,99428.34
2023-01-07T06:55:19.567Z,99424.63
2023-01-07T06:57:46.124Z,99426.34
2023-01-07T07:00:13.227Z,99433.03
2023-01-07T07:02:39.904Z,99427.03
2023-01-07T07:05:06.827Z,99429.16
2023-01-07T07:07:33.512Z,99438.44
2023-01-07T07:10:00.846Z,99439.28
2023-01-07T07:12:27.389Z,99436.91
2023-01-07T07:14:54.101Z,99443.72
2023-01-07T07:17:20.721Z,99440.59
2023-01-07T07:19:47.352Z,99441.00
2023-01-07T07:22:13.924Z,99445.16
2023-01-07T07:24:40.543Z,99449.09
2023-01-07T07:27:07.117Z,99450.56
2023-01-07T07:29:33.716Z,99450.38
2023-01-07T07:32:00.463Z,99454.59
2023-01-07T07:34:27.074Z,99449.16
2023-01-07T07:36:53.639Z,99448.94
2023-01-07T07:39:20.275Z,99441.84
2023-01-07T07:41:46.910Z,99438.44
2023-01-07T07:44:17.000Z,99439.16
2023-01-07T07:46:43.715Z,99439.41
2023-01-07T07:49:12.105Z,99431.25
2023-01-07T07:51:38.771Z,99433.47
2023-01-07T07:54:05.461Z,99436.63
2023-01-07T07:56:32.091Z,99435.16
2023-01-07T07:58:58.781Z,99427.59
2023-01-07T08:01:25.933Z,99424.66
2023-01-07T08:03:52.624Z,99430.75
2023-01-07T08:06:19.282Z,99423.56
2023-01-07T08:08:46.029Z,99425.19
2023-01-07T08:11:12.667Z,99420.88
2023-01-07T08:13:40.362Z,99421.47
2023-01-07T08:16:07.301Z,99425.25
2023-01-07T08:18:34.311Z,99423.69
2023-01-07T08:21:01.105Z,99426.56
2023-01-07T08:23:31.321Z,99424.44
2023-01-07T08:26:02.923Z,99424.16
2023-01-07T08:28:33.053Z,99431.25
2023-01-07T08:31:04.253Z,99425.75
2023-01-07T08:33:36.095Z,99422.38
2023-01-07T08:36:09.294Z,99418.69
2023-01-07T08:38:36.284Z,99429.00
2023-01-07T08:41:03.605Z,99427.50
2023-01-07T08:43:30.682Z,99421.44
2023-01-07T08:45:57.342Z,99425.63
2023-01-07T08:48:24.152Z,99413.53
2023-01-07T08:50:52.899Z,99418.91
2023-01-07T08:53:20.758Z,99419.59
2023-01-07T08:55:47.483Z,99421.03
2023-01-07T08:58:14.036Z,99421.47
2023-01-07T09:00:41.594Z,99413.31
2023-01-07T09:03:08.451Z,99410.94
2023-01-07T09:05:35.455Z,99405.88
2023-01-07T09:08:03.712Z,99407.59
2023-01-07T09:10:30.767Z,99411.97
2023-01-07T09:12:57.716Z,99403.38
2023-01-07T09:15:24.460Z,99406.34
2023-01-07T09:17:51.240Z,99407.03
2023-01-07T09:20:18.550Z,99409.06
2023-01-07T09:22:45.323Z,99401.44
2023-01-07T09:25:13.033Z,99400.53
2023-01-07T09:27:39.707Z,99395.47
2023-01-07T09:30:08.028Z,99393.63
2023-01-07T09:32:35.091Z,99387.56
2023-01-07T09:35:01.747Z,99380.09
2023-01-07T09:37:28.355Z,99386.00
2023-01-07T09:39:55.101Z,99383.63
2023-01-07T09:42:33.739Z,99380.91
2023-01-07T09:45:25.076Z,99379.06
2023-01-07T09:47:55.989Z,99380.44
2023-01-07T09:50:47.772Z,99375.50
2023-01-07T09:53:24.639Z,99373.28
2023-01-07T09:56:11.199Z,99370.72
2023-01-07T09:58:42.047Z,99364.06
2023-01-07T10:01:43.837Z,99361.97
2023-01-07T10:04:22.331Z,99355.00
2023-01-07T10:07:07.449Z,99362.03
2023-01-07T10:10:11.812Z,99360.44
2023-01-07T10:12:56.900Z,99355.72
2023-01-07T10:16:00.879Z,99350.88
2023-01-07T10:18:48.810Z,99348.03
2023-01-07T10:21:47.487Z,99339.69
2023-01-07T10:24:27.447Z,99343.97
2023-01-07T10:27:00.682Z,99344.91
2023-01-07T10:29:39.638Z,99338.72
2023-01-07T10:32:17.847Z,99336.88
2023-01-07T10:34:49.680Z,99331.75
2023-01-07T10:37:38.582Z,99332.16
2023-01-07T10:40:26.556Z,99325.34
2023-01-07T10:43:21.455Z,99314.66
2023-01-07T10:46:04.425Z,99319.47
2023-01-07T10:48:37.305Z,99321.66
2023-01-07T10:51:25.616Z,99309.47
2023-01-07T10:54:07.613Z,99299.88
2023-01-07T10:56:49.341Z,99289.44
2023-01-07T10:59:21.018Z,99277.53
2023-01-07T11:01:54.320Z,99280.66
2023-01-07T11:04:21.298Z,99274.28
2023-01-07T11:06:53.750Z,99263.09
2023-01-07T11:09:37.998Z,99272.44
2023-01-07T11:12:38.763Z,99262.75
2023-01-07T11:15:16.880Z,99258.38
2023-01-07T11:17:53.380Z,99261.47
2023-01-07T11:20:42.379Z,99247.38
2023-01-07T11:23:18.301Z,99251.09
2023-01-07T11:25:45.967Z,99237.97
2023-01-07T11:28:19.223Z,99236.84
2023-01-07T11:30:55.324Z,99228.91
2023-01-07T11:34:01.755Z,99226.22
2023-01-07T11:36:43.459Z,99219.13
2023-01-07T11:39:23.909Z,99210.59
2023-01-07T11:42:00.104Z,99203.16
2023-01-07T11:44:27.168Z,99212.22
2023-01-07T11:46:56.044Z,99213.00
2023-01-07T11:49:30.364Z,99211.06
2023-01-07T11:51:57.229Z,99203.47
2023-01-07T11:54:27.761Z,99203.72
2023-01-07T11:57:12.236Z,99208.41
2023-01-07T11:59:38.915Z,99204.34
2023-01-07T12:02:24.063Z,99206.94
2023-01-07T12:04:50.791Z,99202.00
2023-01-07T12:07:17.820Z,99204.25
2023-01-07T12:09:46.090Z,99199.25
2023-01-07T12:12:34.141Z,99198.47
2023-01-07T12:15:19.179Z,99196.69
2023-01-07T12:17:49.177Z,99199.38
2023-01-07T12:20:40.643Z,99189.50
2023-01-07T12:23:13.289Z,99185.22
2023-01-07T12:26:01.203Z,99177.81
2023-01-07T12:28:48.247Z,99189.59
2023-01-07T12:31:52.466Z,99181.28
2023-01-07T12:34:31.038Z,99177.75
2023-01-07T12:37:04.816Z,99167.84
2023-01-07T12:39:36.043Z,99177.59
2023-01-07T12:42:09.483Z,99170.22
2023-01-07T12:44:43.669Z,99166.22
2023-01-07T12:47:30.628Z,99161.47
2023-01-07T12:50:12.067Z,99155.63
2023-01-07T12:52:46.201Z,99158.78
2023-01-07T12:55:21.986Z,99154.31
2023-01-07T12:58:09.031Z,99150.56
2023-01-07T13:00:43.439Z,99140.94
2023-01-07T13:03:37.493Z,99147.47
2023-01-07T13:06:15.312Z,99137.91
2023-01-07T13:08:55.051Z,99135.88
2023-01-07T13:11:59.557Z,99122.53
2023-01-07T13:14:41.519Z,99128.00
2023-01-07T13:17:18.347Z,99139.19
2023-01-07T13:19:45.095Z,99127.28
2023-01-07T13:22:36.696Z,99118.22
2023-01-07T13:25:57.444Z,99125.31
2023-01-07T13:28:50.165Z,99117.63
2023-01-07T13:31:34.246Z,99112.28
2023-01-07T13:34:27.357Z,99110.03
2023-01-07T13:37:21.518Z,99107.00
2023-01-07T13:40:09.390Z,99113.56
2023-01-07T13:42:52.425Z,99110.88
2023-01-07T13:45:34.304Z,99109.66
2023-01-07T13:48:05.633Z,99105.06
2023-01-07T13:50:58.273Z,99098.00
2023-01-07T13:53:24.862Z,99103.47
2023-01-07T13:55:52.482Z,99097.97
2023-01-07T13:58:31.454Z,99098.06
2023-01-07T14:01:07.950Z,99102.84
2023-01-07T14:03:43.448Z,99098.28
2023-01-07T14:06:22.296Z,99095.69
2023-01-07T14:08:52.675Z,99091.78
2023-01-07T14:11:42.077Z,99099.09
2023-01-07T14:14:46.513Z,99082.53
2023-01-07T14:17:37.618Z,99074.38
2023-01-07T14:20:43.558Z,99072.94
2023-01-07T14:23:16.494Z,99080.25
2023-01-07T14:26:00.813Z,99077.78
2023-01-07T14:28:49.891Z,99075.47
2023-01-07T14:31:23.414Z,99070.09
2023-01-07T14:34:12.587Z,99073.63
2023-01-07T14:37:02.639Z,99067.19
2023-01-07T14:39:41.347Z,99069.41
2023-01-07T14:42:20.445Z,99072.25
2023-01-07T14:44:49.156Z,99065.69
2023-01-07T14:47:40.852Z,99067.53
2023-01-07T14:50:37.876Z,99067.25
2023-01-07T14:53:21.948Z,99059.81
2023-01-07T14:55:56.902Z,99056.94
2023-01-07T14:58:39.714Z,99065.09
2023-01-07T15:01:27.755Z,99055.56
2023-01-07T15:04:16.220Z,99062.13
2023-01-07T15:06:43.710Z,99059.25
2023-01-07T15:09:57.898Z,99053.72
2023-01-07T15:12:49.925Z,99058.81
2023-01-07T15:15:39.979Z,99044.34
2023-01-07T15:18:08.791Z,99049.09
2023-01-07T15:21:10.641Z,99055.06
2023-01-07T15:23:43.036Z,99057.09
2023-01-07T15:26:18.631Z,99052.19
2023-01-07T15:28:55.529Z,99046.88
2023-01-07T15:31:40.738Z,99051.81
2023-01-07T15:34:17.075Z,99057.28
2023-01-07T15:36:47.188Z,99059.25
2023-01-07T15:39:24.290Z,99059.09
2023-01-07T15:41:54.215Z,99050.75
2023-01-07T15:44:25.692Z,99044.41
2023-01-07T15:46:53.898Z,99050.75
2023-01-07T15:49:22.075Z,99054.19
2023-01-07T15:51:55.890Z,99050.25
2023-01-07T15:54:30.593Z,99051.66
2023-01-07T15:57:02.792Z,99050.94
2023-01-07T15:59:32.234Z,99047.41
2023-01-07T16:02:16.989Z,99046.28
2023-01-07T16:04:48.266Z,99041.09
2023-01-07T16:07:30.650Z,99043.19
2023-01-07T16:09:57.976Z,99042.75
2023-01-07T16:12:39.248Z,99044.19
2023-01-07T16:15:26.288Z,99035.03
2023-01-07T16:17:58.914Z,99028.81
2023-01-07T16:20:54.770Z,99026.56
2023-01-07T16:23:30.876Z,99025.88
2023-01-07T16:26:05.465Z,99018.81
2023-01-07T16:28:45.057Z,99019.97
2023-01-07T16:31:15.036Z,99024.88
2023-01-07T16:33:43.850Z,99019.97
2023-01-07T16:36:17.615Z,99008.09
2023-01-07T16:38:47.512Z,98999.38
2023-01-07T16:41:28.907Z,99008.25
2023-01-07T16:43:57.743Z,98998.38
2023-01-07T16:46:34.574Z,98992.88
2023-01-07T16:49:28.736Z,98993.84
2023-01-07T16:52:06.771Z,98993.84
2023-01-07T16:54:37.250Z,98992.44
2023-01-07T16:57:05.518Z,98995.50
2023-01-07T16:59:35.562Z,98985.81
2023-01-07T17:02:25.278Z,98983.53
2023-01-07T17:04:52.121Z,98983.22
2023-01-07T17:07:28.793Z,98977.59
2023-01-07T17:09:58.173Z,98979.88
2023-01-07T17:12:39.377Z,98973.50
2023-01-07T17:15:33.301Z,98962.81
2023-01-07T17:18:11.988Z,98965.84
2023-01-07T17:20:53.560Z,98960.03
2023-01-07T17:23:26.363Z,98945.41
2023-01-07T17:25:58.916Z,98944.09
2023-01-07T17:28:27.355Z,98946.09
2023-01-07T17:30:54.624Z,98951.63
2023-01-07T17:33:24.323Z,98952.84
2023-01-07T17:35:54.021Z,98950.06
2023-01-07T17:38:21.148Z,98946.22
2023-01-07T17:40:49.081Z,98946.03
2023-01-07T17:43:44.482Z,98942.50
2023-01-07T17:46:12.557Z,98946.59
2023-01-07T17:48:39.549Z,98941.69
2023-01-07T17:51:07.107Z,98937.63
2023-01-07T17:53:39.317Z,98936.38
2023-01-07T17:56:06.459Z,98939.91
2023-01-07T17:58:36.278Z,98940.78
2023-01-07T18:01:07.753Z,98941.63
2023-01-07T18:03:34.584Z,98936.84
2023-01-07T18:06:01.445Z,98936.53
2023-01-07T18:08:28.112Z,98939.28
2023-01-07T18:11:14.758Z,98946.66
2023-01-07T18:13:41.830Z,98945.84
2023-01-07T18:16:12.616Z,98943.94
2023-01-07T18:18:39.320Z,98932.09
2023-01-07T18:21:06.141Z,98935.75
2023-01-07T18:23:32.787Z,98932.56
2023-01-07T18:25:59.516Z,98932.69
2023-01-07T18:28:26.159Z,98925.25
2023-01-07T18:30:52.766Z,98929.78
2023-01-07T18:33:19.419Z,98927.09
2023-01-07T18:35:47.643Z,98928.19
2023-01-07T18:38:15.784Z,98925.31
2023-01-07T18:40:43.661Z,98919.16
2023-01-07T18:43:14.373Z,98932.84
2023-01-07T18:45:41.371Z,98932.56
2023-01-07T18:48:08.076Z,98927.88
2023-01-07T18:50:35.178Z,98934.75
2023-01-07T18:53:01.813Z,98932.94
2023-01-07T18:55:29.414Z,98924.00
2023-01-07T18:57:56.021Z,98921.69
2023-01-07T19:00:22.762Z,98926.53
2023-01-07T19:02:49.380Z,98924.84
2023-01-07T19:05:16.144Z,98932.59
2023-01-07T19:07:43.377Z,98928.72
2023-01-07T19:10:10.558Z,98922.69
2023-01-07T19:12:37.281Z,98918.44
2023-01-07T19:15:04.498Z,98919.53
2023-01-07T19:17:31.202Z,98915.19
2023-01-07T19:19:57.834Z,98915.66
2023-01-07T19:22:24.466Z,98913.38
2023-01-07T19:24:51.118Z,98916.13
2023-01-07T19:27:17.721Z,98916.38
2023-01-07T19:29:44.298Z,98923.38
2023-01-07T19:32:10.881Z,98919.25
2023-01-07T19:34:37.511Z,98927.50
2023-01-07T19:37:04.070Z,98925.91
2023-01-07T19:39:30.739Z,98928.84
2023-01-07T19:41:57.443Z,98915.75
2023-01-07T19:44:24.090Z,98914.91
2023-01-07T19:46:50.896Z,98913.94
2023-01-07T19:49:17.678Z,98911.41
2023-01-07T19:51:44.435Z,98900.59
2023-01-07T19:54:16.041Z,98908.56
2023-01-07T19:56:46.164Z,98904.19
2023-01-07T19:59:13.201Z,98899.38
2023-01-07T20:01:40.038Z,98898.09
2023-01-07T20:04:08.293Z,98897.59
2023-01-07T20:06:38.860Z,98899.31
2023-01-07T20:09:10.564Z,98892.66
2023-01-07T20:11:38.621Z,98892.41
2023-01-07T20:14:07.060Z,98888.78
2023-01-07T20:16:36.681Z,98882.38
2023-01-07T20:19:03.485Z,98874.28
2023-01-07T20:21:30.172Z,98871.63
2023-01-07T20:23:56.779Z,98867.50
2023-01-07T20:26:30.195Z,98863.63
2023-01-07T20:28:58.091Z,98861.41
2023-01-07T20:31:26.181Z,98860.25
2023-01-07T20:33:55.719Z,98853.47
2023-01-07T20:36:25.766Z,98859.75
2023-01-07T20:38:52.420Z,98856.13
2023-01-07T20:41:22.067Z,98856.59
2023-01-07T20:43:53.605Z,98847.78
2023-01-07T20:46:22.121Z,98849.59
2023-01-07T20:48:49.100Z,98847.06
2023-01-07T20:51:17.473Z,98845.38
2023-01-07T20:53:44.542Z,98847.53
2023-01-07T20:56:12.361Z,98854.41
2023-01-07T20:58:39.623Z,98854.31
2023-01-07T21:01:09.004Z,98847.75
2023-01-07T21:03:39.212Z,98842.41
2023-01-07T21:06:09.726Z,98835.00
2023-01-07T21:08:37.029Z,98834.66
2023-01-07T21:11:03.888Z,98833.59
2023-01-07T21:13:30.491Z,98831.50
2023-01-07T21:16:03.028Z,98832.69
2023-01-07T21:18:30.410Z,98824.31
2023-01-07T21:20:57.029Z,98820.75
2023-01-07T21:23:23.695Z,98819.41
2023-01-07T21:25:50.210Z,98817.56
2023-01-07T21:28:16.885Z,98811.13
2023-01-07T21:30:43.618Z,98808.16
2023-01-07T21:33:10.477Z,98799.63
2023-01-07T21:35:41.089Z,98797.34
2023-01-07T21:38:07.988Z,98802.16
2023-01-07T21:40:34.556Z,98796.38
2023-01-07T21:43:01.328Z,98792.41
2023-01-07T21:45:28.028Z,98793.78
2023-01-07T21:47:54.623Z,98791.72
2023-01-07T21:50:21.426Z,98792.44
2023-01-07T21:52:47.998Z,98788.31
2023-01-07T21:55:14.634Z,98779.84
2023-01-07T21:57:41.288Z,98782.78
2023-01-07T22:00:08.439Z,98780.84
2023-01-07T22:02:41.118Z,98771.91
2023-01-07T22:05:09.884Z,98776.47
2023-01-07T22:07:36.555Z,98771.88
2023-01-07T22:10:05.698Z,98772.31
2023-01-07T22:12:32.728Z,98772.06
2023-01-07T22:14:59.372Z,98771.34
2023-01-07T22:17:27.833Z,98766.34
2023-01-07T22:19:54.501Z,98778.75
2023-01-07T22:22:21.095Z,98780.16
2023-01-07T22:24:47.805Z,98773.19
2023-01-07T22:27:14.456Z,98766.03
2023-01-07T22:29:41.875Z,98773.28
2023-01-07T22:32:08.599Z,98762.44
2023-01-07T22:34:35.253Z,98762.09
2023-01-07T22:37:11.735Z,98760.28
2023-01-07T22:39:43.865Z,98755.75
2023-01-07T22:42:18.542Z,98753.47
2023-01-07T22:44:53.161Z,98750.22
2023-01-07T22:47:25.158Z,98747.53
2023-01-07T22:49:53.744Z,98749.41
2023-01-07T22:52:20.400Z,98750.56
2023-01-07T22:54:47.171Z,98749.84
2023-01-07T22:57:14.564Z,98745.72
2023-01-07T22:59:41.187Z,98742.31
2023-01-07T23:02:07.982Z,98728.88
2023-01-07T23:04:34.629Z,98723.97
2023-01-07T23:07:01.179Z,98721.06
2023-01-07T23:09:27.868Z,98723.69
2023-01-07T23:11:59.307Z,98726.03
2023-01-07T23:14:27.252Z,98726.31
2023-01-07T23:16:54.300Z,98719.94
2023-01-07T23:19:22.121Z,98722.03
2023-01-07T23:21:51.831Z,98731.47
2023-01-07T23:24:18.895Z,98720.97
2023-01-07T23:26:48.463Z,98723.75
2023-01-07T23:29:15.252Z,98717.72
2023-01-07T23:31:41.989Z,98712.41
2023-01-07T23:34:08.934Z,98711.94
2023-01-07T23:36:37.284Z,98706.69
2023-01-07T23:39:04.600Z,98702.78
2023-01-07T23:41:32.047Z,98707.81
2023-01-07T23:43:58.625Z,98704.84
2023-01-07T23:46:25.250Z,98701.41
2023-01-07T23:48:51.854Z,98693.75
2023-01-07T23:51:20.216Z,98703.25
2023-01-07T23:53:47.878Z,98692.91
2023-01-07T23:56:19.210Z,98683.22
2023-01-07T23:58:46.387Z,98685.22
